createdAt,value
2022-11-17T00:00:46.752Z,93.87
2022-11-17T00:01:46.702Z,93.75
2022-11-17T00:02:46.828Z,93.87
2022-11-17T00:03:46.685Z,93.94
2022-11-17T00:04:46.679Z,93.95
2022-11-17T00:05:46.674Z,93.86
2022-11-17T00:06:46.651Z,93.79
2022-11-17T00:07:46.615Z,93.92
2022-11-17T00:08:46.635Z,93.95
2022-11-17T00:09:46.638Z,93.93
2022-11-17T00:10:46.626Z,93.88
2022-11-17T00:11:46.603Z,93.93
2022-11-17T00:12:46.578Z,93.90
2022-11-17T00:13:46.602Z,93.92
2022-11-17T00:14:46.550Z,93.98
2022-11-17T00:15:46.541Z,94.03
2022-11-17T00:16:46.502Z,94.00
2022-11-17T00:17:46.515Z,94.02
2022-11-17T00:18:46.493Z,94.01
2022-11-17T00:19:46.482Z,93.94
2022-11-17T00:20:46.464Z,93.94
2022-11-17T00:21:46.457Z,93.98
2022-11-17T00:22:46.436Z,94.05
2022-11-17T00:23:46.430Z,94.10
2022-11-17T00:24:46.402Z,93.96
2022-11-17T00:25:46.396Z,93.90
2022-11-17T00:26:46.406Z,93.88
2022-11-17T00:27:46.391Z,93.92
2022-11-17T00:28:46.363Z,94.04
2022-11-17T00:29:46.344Z,94.23
2022-11-17T00:30:46.319Z,94.15
2022-11-17T00:31:46.356Z,94.27
2022-11-17T00:32:46.313Z,94.11
2022-11-17T00:33:46.290Z,94.08
2022-11-17T00:34:46.306Z,94.05
2022-11-17T00:35:46.272Z,93.82
2022-11-17T00:36:46.268Z,93.83
2022-11-17T00:37:46.256Z,93.90
2022-11-17T00:38:46.236Z,93.90
2022-11-17T00:39:46.229Z,93.92
2022-11-17T00:40:46.188Z,93.78
2022-11-17T00:41:46.217Z,93.80
2022-11-17T00:42:46.199Z,93.84
2022-11-17T00:43:46.170Z,93.86
2022-11-17T00:44:46.149Z,93.94
2022-11-17T00:45:46.125Z,93.94
2022-11-17T00:46:46.149Z,94.00
2022-11-17T00:47:46.124Z,93.76
2022-11-17T00:48:46.098Z,93.71
2022-11-17T00:49:46.120Z,93.66
2022-11-17T00:50:46.086Z,93.49
2022-11-17T00:51:46.077Z,93.49
2022-11-17T00:52:46.062Z,93.44
2022-11-17T00:53:46.036Z,93.52
2022-11-17T00:54:46.041Z,93.62
2022-11-17T00:55:46.080Z,93.54
2022-11-17T00:56:45.979Z,93.58
2022-11-17T00:57:45.986Z,93.72
2022-11-17T00:58:45.952Z,93.79
2022-11-17T00:59:45.975Z,93.69
2022-11-17T01:00:45.941Z,93.84
2022-11-17T01:01:46.021Z,94.07
2022-11-17T01:02:45.920Z,93.65
2022-11-17T01:03:45.896Z,93.82
2022-11-17T01:04:45.894Z,93.70
2022-11-17T01:05:45.899Z,93.49
2022-11-17T01:06:45.850Z,93.55
2022-11-17T01:07:45.861Z,93.64
2022-11-17T01:08:45.873Z,93.74
2022-11-17T01:09:45.815Z,93.67
2022-11-17T01:10:45.796Z,93.62
2022-11-17T01:11:45.811Z,93.73
2022-11-17T01:12:45.805Z,93.69
2022-11-17T01:13:45.814Z,93.55
2022-11-17T01:14:45.779Z,93.65
2022-11-17T01:15:45.781Z,93.74
2022-11-17T01:16:45.751Z,93.73
2022-11-17T01:17:45.732Z,93.67
2022-11-17T01:18:45.725Z,93.70
2022-11-17T01:19:45.716Z,93.72
2022-11-17T01:20:45.681Z,93.78
2022-11-17T01:21:45.663Z,93.79
2022-11-17T01:22:45.673Z,93.84
2022-11-17T01:23:45.657Z,93.99
2022-11-17T01:24:45.622Z,93.85
2022-11-17T01:25:45.620Z,93.82
2022-11-17T01:26:45.622Z,93.73
2022-11-17T01:27:45.621Z,93.86
2022-11-17T01:28:45.599Z,93.82
2022-11-17T01:29:45.568Z,93.62
2022-11-17T01:30:45.535Z,93.85
2022-11-17T01:31:45.570Z,93.82
2022-11-17T01:32:45.638Z,93.85
2022-11-17T01:33:45.519Z,93.73
2022-11-17T01:34:45.485Z,93.59
2022-11-17T01:35:45.517Z,93.69
2022-11-17T01:36:45.479Z,93.68
2022-11-17T01:37:45.505Z,93.69
2022-11-17T01:38:45.435Z,93.55
2022-11-17T01:39:45.449Z,93.67
2022-11-17T01:40:45.453Z,93.63
2022-11-17T01:41:45.419Z,93.59
2022-11-17T01:42:45.412Z,93.60
2022-11-17T01:43:45.391Z,93.68
2022-11-17T01:44:45.388Z,93.75
2022-11-17T01:45:45.346Z,93.67
2022-11-17T01:46:45.348Z,93.65
2022-11-17T01:47:45.396Z,93.46
2022-11-17T01:48:45.334Z,93.45
2022-11-17T01:49:45.362Z,93.45
2022-11-17T01:50:45.298Z,93.43
2022-11-17T01:51:45.297Z,93.42
2022-11-17T01:52:45.304Z,93.13
2022-11-17T01:53:45.300Z,92.89
2022-11-17T01:54:45.258Z,92.98
2022-11-17T01:55:45.225Z,92.98
2022-11-17T01:56:45.209Z,92.98
2022-11-17T01:57:45.192Z,92.89
2022-11-17T01:58:45.218Z,92.71
2022-11-17T01:59:45.217Z,92.60
2022-11-17T02:00:45.177Z,92.57
2022-11-17T02:01:45.203Z,92.45
2022-11-17T02:02:45.146Z,92.42
2022-11-17T02:03:45.131Z,92.42
2022-11-17T02:04:45.130Z,92.53
2022-11-17T02:05:45.133Z,92.64
2022-11-17T02:06:45.087Z,92.63
2022-11-17T02:07:45.071Z,92.77
2022-11-17T02:08:45.090Z,92.67
2022-11-17T02:09:45.087Z,92.60
2022-11-17T02:10:51.273Z,92.62
2022-11-17T02:11:45.033Z,92.49
2022-11-17T02:12:44.999Z,92.52
2022-11-17T02:13:45.012Z,92.65
2022-11-17T02:14:45.009Z,92.36
2022-11-17T02:15:44.976Z,92.54
2022-11-17T02:16:44.942Z,92.57
2022-11-17T02:17:44.951Z,92.58
2022-11-17T02:18:44.925Z,92.67
2022-11-17T02:19:44.906Z,92.81
2022-11-17T02:20:44.946Z,92.58
2022-11-17T02:21:44.904Z,92.72
2022-11-17T02:22:44.890Z,92.70
2022-11-17T02:23:44.903Z,92.79
2022-11-17T02:24:44.857Z,92.79
2022-11-17T02:25:44.844Z,92.88
2022-11-17T02:26:44.823Z,92.90
2022-11-17T02:27:44.809Z,92.88
2022-11-17T02:28:44.806Z,92.57
2022-11-17T02:29:44.819Z,92.52
2022-11-17T02:30:44.777Z,92.48
2022-11-17T02:31:44.768Z,92.34
2022-11-17T02:32:44.756Z,92.44
2022-11-17T02:33:44.747Z,92.60
2022-11-17T02:34:44.753Z,92.48
2022-11-17T02:35:44.749Z,92.69
2022-11-17T02:36:44.722Z,92.49
2022-11-17T02:37:44.700Z,92.37
2022-11-17T02:38:44.693Z,92.29
2022-11-17T02:39:44.665Z,92.44
2022-11-17T02:40:44.662Z,92.62
2022-11-17T02:41:44.644Z,92.46
2022-11-17T02:42:44.633Z,92.28
2022-11-17T02:43:44.630Z,92.36
2022-11-17T02:44:44.633Z,92.32
2022-11-17T02:45:44.612Z,92.42
2022-11-17T02:46:44.578Z,92.23
2022-11-17T02:47:44.579Z,92.31
2022-11-17T02:48:44.568Z,92.25
2022-11-17T02:49:44.548Z,92.39
2022-11-17T02:50:44.516Z,92.36
2022-11-17T02:51:44.526Z,92.44
2022-11-17T02:52:44.487Z,92.30
2022-11-17T02:53:44.472Z,92.42
2022-11-17T02:54:44.473Z,92.28
2022-11-17T02:55:44.457Z,92.40
2022-11-17T02:56:44.466Z,92.31
2022-11-17T02:57:44.469Z,92.26
2022-11-17T02:58:44.419Z,92.26
2022-11-17T02:59:44.405Z,92.35
2022-11-17T03:00:44.408Z,92.34
2022-11-17T03:01:44.488Z,92.29
2022-11-17T03:02:44.371Z,92.27
2022-11-17T03:03:44.349Z,92.24
2022-11-17T03:04:44.378Z,92.29
2022-11-17T03:05:44.326Z,92.41
2022-11-17T03:06:44.336Z,92.43
2022-11-17T03:07:44.292Z,92.55
2022-11-17T03:08:44.276Z,92.40
2022-11-17T03:09:44.310Z,92.51
2022-11-17T03:10:44.259Z,92.51
2022-11-17T03:11:44.230Z,92.39
2022-11-17T03:12:44.242Z,92.32
2022-11-17T03:13:44.224Z,92.41
2022-11-17T03:14:44.228Z,92.53
2022-11-17T03:15:44.210Z,92.40
2022-11-17T03:16:44.184Z,92.34
2022-11-17T03:17:44.178Z,92.48
2022-11-17T03:18:44.146Z,92.40
2022-11-17T03:19:44.135Z,92.22
2022-11-17T03:20:44.161Z,92.16
2022-11-17T03:21:44.118Z,92.28
2022-11-17T03:22:44.126Z,92.33
2022-11-17T03:23:44.091Z,92.46
2022-11-17T03:24:44.083Z,92.42
2022-11-17T03:25:44.070Z,92.59
2022-11-17T03:26:44.070Z,92.59
2022-11-17T03:27:44.071Z,92.74
2022-11-17T03:28:44.035Z,92.62
2022-11-17T03:29:44.017Z,92.48
2022-11-17T03:30:44.014Z,92.43
2022-11-17T03:31:43.994Z,92.51
2022-11-17T03:32:43.974Z,92.59
2022-11-17T03:33:43.975Z,92.45
2022-11-17T03:34:43.962Z,92.43
2022-11-17T03:35:49.295Z,92.50
2022-11-17T03:36:43.944Z,92.51
2022-11-17T03:37:43.943Z,92.66
2022-11-17T03:38:43.923Z,92.63
2022-11-17T03:39:43.893Z,92.49
2022-11-17T03:40:43.856Z,92.45
2022-11-17T03:41:43.859Z,92.46
2022-11-17T03:42:43.863Z,92.55
2022-11-17T03:43:43.827Z,92.67
2022-11-17T03:44:43.824Z,92.80
2022-11-17T03:45:43.793Z,92.64
2022-11-17T03:46:43.791Z,92.71
2022-11-17T03:47:43.813Z,92.75
2022-11-17T03:48:43.770Z,92.86
2022-11-17T03:49:43.769Z,92.75
2022-11-17T03:50:43.761Z,92.78
2022-11-17T03:51:43.725Z,92.87
2022-11-17T03:52:43.767Z,92.80
2022-11-17T03:53:43.694Z,92.80
2022-11-17T03:54:43.714Z,92.93
2022-11-17T03:55:43.659Z,92.99
2022-11-17T03:56:43.680Z,92.92
2022-11-17T03:57:43.642Z,92.78
2022-11-17T03:58:43.648Z,92.78
2022-11-17T03:59:43.657Z,92.88
2022-11-17T04:00:43.623Z,92.90
2022-11-17T04:01:43.662Z,93.05
2022-11-17T04:02:43.594Z,93.01
2022-11-17T04:03:43.570Z,92.90
2022-11-17T04:04:43.549Z,92.86
2022-11-17T04:05:43.564Z,92.87
2022-11-17T04:06:43.533Z,92.95
2022-11-17T04:07:43.509Z,93.00
2022-11-17T04:08:43.535Z,93.06
2022-11-17T04:09:43.501Z,92.97
2022-11-17T04:10:43.486Z,93.04
2022-11-17T04:11:43.488Z,93.12
2022-11-17T04:12:43.470Z,93.10
2022-11-17T04:13:43.443Z,93.07
2022-11-17T04:14:43.437Z,93.13
2022-11-17T04:15:43.444Z,93.21
2022-11-17T04:16:43.415Z,93.20
2022-11-17T04:17:43.390Z,93.13
2022-11-17T04:18:43.386Z,93.32
2022-11-17T04:19:43.355Z,93.25
2022-11-17T04:20:43.350Z,93.22
2022-11-17T04:21:43.351Z,93.09
2022-11-17T04:22:43.338Z,93.28
2022-11-17T04:23:43.318Z,93.25
2022-11-17T04:24:43.322Z,93.31
2022-11-17T04:25:43.308Z,93.42
2022-11-17T04:26:43.276Z,93.52
2022-11-17T04:27:43.247Z,93.42
2022-11-17T04:28:43.242Z,93.44
2022-11-17T04:29:43.217Z,93.46
2022-11-17T04:30:43.241Z,93.42
2022-11-17T04:31:43.215Z,93.40
2022-11-17T04:32:43.207Z,93.37
2022-11-17T04:33:43.190Z,93.53
2022-11-17T04:34:43.202Z,93.63
2022-11-17T04:35:43.155Z,93.67
2022-11-17T04:36:43.155Z,93.66
2022-11-17T04:37:43.125Z,93.75
2022-11-17T04:38:43.112Z,93.66
2022-11-17T04:39:43.101Z,93.78
2022-11-17T04:40:43.157Z,93.88
2022-11-17T04:41:43.083Z,93.81
2022-11-17T04:42:43.074Z,93.89
2022-11-17T04:43:43.108Z,93.86
2022-11-17T04:44:43.058Z,93.86
2022-11-17T04:45:43.024Z,93.92
2022-11-17T04:46:43.021Z,93.90
2022-11-17T04:47:43.026Z,93.88
2022-11-17T04:48:43.015Z,94.01
2022-11-17T04:49:42.985Z,93.92
2022-11-17T04:50:42.953Z,94.06
2022-11-17T04:51:42.958Z,93.97
2022-11-17T04:52:42.938Z,93.95
2022-11-17T04:53:42.932Z,93.98
2022-11-17T04:54:42.932Z,93.96
2022-11-17T04:55:42.921Z,94.00
2022-11-17T04:56:42.919Z,93.99
2022-11-17T04:57:42.869Z,94.15
2022-11-17T04:58:42.859Z,94.15
2022-11-17T04:59:42.863Z,94.17
2022-11-17T05:00:42.877Z,94.21
2022-11-17T05:01:42.895Z,94.20
2022-11-17T05:02:42.866Z,94.21
2022-11-17T05:03:42.795Z,94.22
2022-11-17T05:04:42.792Z,94.20
2022-11-17T05:05:42.755Z,94.21
2022-11-17T05:06:42.751Z,94.24
2022-11-17T05:07:42.727Z,94.08
2022-11-17T05:08:42.744Z,94.12
2022-11-17T05:09:42.728Z,94.16
2022-11-17T05:10:42.793Z,94.25
2022-11-17T05:11:42.696Z,94.33
2022-11-17T05:12:42.693Z,94.15
2022-11-17T05:13:42.658Z,94.11
2022-11-17T05:14:42.658Z,94.11
2022-11-17T05:15:42.654Z,94.20
2022-11-17T05:16:42.656Z,94.18
2022-11-17T05:17:42.651Z,94.20
2022-11-17T05:18:42.632Z,94.15
2022-11-17T05:19:42.571Z,93.98
2022-11-17T05:20:42.602Z,94.10
2022-11-17T05:21:42.592Z,94.18
2022-11-17T05:22:42.573Z,94.12
2022-11-17T05:23:42.559Z,93.99
2022-11-17T05:24:42.532Z,94.03
2022-11-17T05:25:42.537Z,93.95
2022-11-17T05:26:42.487Z,94.01
2022-11-17T05:27:42.499Z,94.07
2022-11-17T05:28:42.465Z,94.09
2022-11-17T05:29:42.471Z,94.10
2022-11-17T05:30:42.453Z,94.12
2022-11-17T05:31:42.419Z,93.99
2022-11-17T05:32:42.430Z,93.97
2022-11-17T05:33:42.760Z,93.93
2022-11-17T05:34:42.435Z,93.93
2022-11-17T05:35:42.404Z,93.95
2022-11-17T05:36:42.383Z,93.98
2022-11-17T05:37:42.346Z,94.01
2022-11-17T05:38:42.348Z,94.11
2022-11-17T05:39:42.339Z,93.90
2022-11-17T05:40:42.327Z,94.01
2022-11-17T05:41:42.287Z,93.91
2022-11-17T05:42:42.284Z,93.97
2022-11-17T05:43:42.276Z,94.02
2022-11-17T05:44:42.293Z,93.94
2022-11-17T05:45:42.272Z,93.91
2022-11-17T05:46:42.268Z,93.85
2022-11-17T05:47:42.254Z,93.81
2022-11-17T05:48:42.228Z,93.84
2022-11-17T05:49:42.246Z,93.70
2022-11-17T05:50:42.215Z,93.48
2022-11-17T05:51:42.206Z,93.42
2022-11-17T05:52:42.150Z,93.64
2022-11-17T05:53:42.148Z,93.63
2022-11-17T05:54:42.135Z,93.52
2022-11-17T05:55:42.112Z,93.46
2022-11-17T05:56:42.162Z,93.49
2022-11-17T05:57:42.096Z,93.47
2022-11-17T05:58:42.073Z,93.42
2022-11-17T05:59:42.089Z,93.41
2022-11-17T06:00:42.097Z,93.39
2022-11-17T06:01:42.072Z,93.24
2022-11-17T06:02:42.037Z,93.20
2022-11-17T06:03:42.044Z,93.19
2022-11-17T06:04:42.046Z,93.29
2022-11-17T06:05:42.002Z,93.17
2022-11-17T06:06:41.990Z,93.26
2022-11-17T06:07:41.994Z,93.09
2022-11-17T06:08:41.956Z,93.09
2022-11-17T06:09:41.934Z,93.09
2022-11-17T06:10:41.937Z,93.06
2022-11-17T06:11:41.921Z,93.17
2022-11-17T06:12:41.918Z,93.02
2022-11-17T06:13:41.884Z,93.07
2022-11-17T06:14:41.895Z,93.03
2022-11-17T06:15:41.889Z,93.08
2022-11-17T06:16:41.856Z,93.11
2022-11-17T06:17:41.862Z,93.17
2022-11-17T06:18:41.881Z,93.22
2022-11-17T06:19:41.815Z,93.25
2022-11-17T06:20:41.829Z,92.99
2022-11-17T06:22:09.772Z,92.97
2022-11-17T06:22:46.993Z,92.88
2022-11-17T06:23:41.775Z,92.95
2022-11-17T06:24:41.772Z,92.94
2022-11-17T06:25:41.767Z,92.93
2022-11-17T06:26:41.714Z,92.94
2022-11-17T06:27:41.747Z,92.91
2022-11-17T06:28:41.737Z,92.95
2022-11-17T06:29:44.686Z,92.72
2022-11-17T06:30:41.876Z,92.60
2022-11-17T06:31:41.645Z,92.62
2022-11-17T06:32:41.674Z,92.64
2022-11-17T06:33:41.619Z,92.57
2022-11-17T06:34:41.658Z,92.55
2022-11-17T06:35:41.605Z,92.35
2022-11-17T06:36:41.582Z,92.32
2022-11-17T06:37:41.579Z,92.18
2022-11-17T06:38:41.579Z,92.30
2022-11-17T06:39:41.569Z,92.24
2022-11-17T06:40:41.538Z,92.16
2022-11-17T06:41:41.541Z,92.24
2022-11-17T06:42:41.564Z,92.33
2022-11-17T06:43:41.499Z,92.30
2022-11-17T06:44:41.483Z,92.39
2022-11-17T06:45:41.468Z,92.27
2022-11-17T06:46:46.118Z,92.13
2022-11-17T06:47:41.450Z,92.18
2022-11-17T06:48:41.455Z,92.23
2022-11-17T06:49:41.428Z,92.06
2022-11-17T06:50:41.461Z,92.02
2022-11-17T06:51:45.151Z,91.93
2022-11-17T06:52:41.428Z,92.10
2022-11-17T06:53:41.387Z,92.07
2022-11-17T06:54:41.415Z,91.97
2022-11-17T06:55:41.366Z,92.13
2022-11-17T06:56:41.363Z,92.16
2022-11-17T06:57:41.388Z,92.16
2022-11-17T06:58:41.360Z,92.12
2022-11-17T06:59:41.354Z,91.97
2022-11-17T07:00:41.410Z,92.11
2022-11-17T07:01:41.310Z,91.92
2022-11-17T07:02:41.397Z,91.91
2022-11-17T07:03:41.291Z,91.90
2022-11-17T07:04:41.420Z,91.88
2022-11-17T07:05:41.269Z,91.98
2022-11-17T07:06:41.247Z,91.97
2022-11-17T07:07:41.342Z,91.97
2022-11-17T07:08:41.232Z,91.94
2022-11-17T07:09:41.212Z,91.79
2022-11-17T07:10:45.053Z,91.78
2022-11-17T07:11:41.177Z,91.65
2022-11-17T07:12:41.189Z,91.59
2022-11-17T07:13:41.159Z,91.64
2022-11-17T07:14:41.155Z,91.58
2022-11-17T07:15:41.152Z,91.50
2022-11-17T07:16:41.113Z,91.62
2022-11-17T07:17:41.160Z,91.45
2022-11-17T07:18:41.090Z,91.63
2022-11-17T07:19:41.116Z,91.66
2022-11-17T07:20:41.077Z,91.41
2022-11-17T07:21:41.045Z,91.49
2022-11-17T07:22:41.029Z,91.56
2022-11-17T07:23:41.011Z,91.44
2022-11-17T07:24:41.013Z,91.25
2022-11-17T07:25:40.987Z,91.31
2022-11-17T07:26:40.971Z,91.39
2022-11-17T07:27:40.976Z,91.42
2022-11-17T07:28:40.938Z,91.21
2022-11-17T07:29:40.958Z,91.22
2022-11-17T07:30:40.923Z,91.25
2022-11-17T07:31:40.928Z,91.31
2022-11-17T07:32:40.882Z,91.21
2022-11-17T07:33:40.884Z,91.16
2022-11-17T07:34:40.863Z,90.96
2022-11-17T07:35:40.866Z,90.97
2022-11-17T07:36:40.838Z,91.09
2022-11-17T07:37:40.820Z,90.98
2022-11-17T07:38:40.935Z,90.84
2022-11-17T07:39:40.810Z,90.50
2022-11-17T07:40:40.800Z,90.74
2022-11-17T07:41:40.766Z,90.98
2022-11-17T07:42:40.773Z,90.86
2022-11-17T07:43:40.758Z,91.00
2022-11-17T07:44:40.743Z,90.87
2022-11-17T07:45:40.742Z,90.67
2022-11-17T07:46:40.726Z,90.69
2022-11-17T07:47:40.736Z,90.76
2022-11-17T07:48:40.683Z,90.56
2022-11-17T07:49:40.704Z,90.51
2022-11-17T07:50:40.646Z,90.57
2022-11-17T07:51:40.666Z,90.66
2022-11-17T07:52:41.702Z,90.57
2022-11-17T07:53:40.641Z,90.51
2022-11-17T07:54:40.631Z,90.62
2022-11-17T07:55:40.613Z,90.55
2022-11-17T07:56:40.611Z,90.44
2022-11-17T07:57:40.579Z,90.45
2022-11-17T07:58:40.633Z,90.46
2022-11-17T07:59:40.584Z,90.28
2022-11-17T08:00:40.609Z,90.39
2022-11-17T08:01:40.509Z,90.24
2022-11-17T08:02:40.516Z,90.31
2022-11-17T08:03:40.564Z,90.39
2022-11-17T08:04:40.530Z,90.29
2022-11-17T08:05:43.572Z,90.16
2022-11-17T08:06:40.486Z,90.40
2022-11-17T08:07:40.510Z,90.34
2022-11-17T08:08:40.655Z,90.25
2022-11-17T08:09:40.469Z,90.14
2022-11-17T08:10:40.406Z,90.15
2022-11-17T08:11:40.397Z,90.08
2022-11-17T08:12:40.380Z,89.99
2022-11-17T08:13:40.389Z,89.86
2022-11-17T08:14:40.363Z,89.99
2022-11-17T08:15:40.416Z,90.02
2022-11-17T08:16:40.370Z,90.13
2022-11-17T08:17:40.343Z,89.99
2022-11-17T08:18:40.563Z,89.91
2022-11-17T08:19:40.294Z,90.00
2022-11-17T08:20:40.312Z,90.05
2022-11-17T08:21:40.311Z,89.83
2022-11-17T08:22:40.313Z,90.11
2022-11-17T08:23:40.252Z,90.15
2022-11-17T08:24:40.234Z,90.11
2022-11-17T08:25:40.240Z,90.03
2022-11-17T08:26:40.204Z,90.08
2022-11-17T08:27:40.193Z,89.73
2022-11-17T08:28:40.505Z,89.86
2022-11-17T08:29:40.147Z,89.79
2022-11-17T08:30:40.127Z,89.77
2022-11-17T08:31:40.130Z,89.62
2022-11-17T08:32:40.127Z,89.53
2022-11-17T08:33:40.095Z,89.67
2022-11-17T08:34:40.073Z,89.61
2022-11-17T08:35:40.123Z,89.69
2022-11-17T08:36:40.108Z,89.62
2022-11-17T08:37:40.040Z,89.49
2022-11-17T08:38:40.165Z,89.50
2022-11-17T08:39:40.042Z,89.64
2022-11-17T08:40:39.993Z,89.64
2022-11-17T08:41:40.005Z,89.76
2022-11-17T08:42:40.021Z,89.58
2022-11-17T08:43:40.010Z,89.64
2022-11-17T08:44:39.966Z,89.39
2022-11-17T08:45:39.997Z,89.38
2022-11-17T08:46:39.940Z,89.54
2022-11-17T08:47:39.933Z,89.52
2022-11-17T08:48:39.992Z,89.55
2022-11-17T08:49:39.951Z,89.23
2022-11-17T08:50:39.879Z,89.42
2022-11-17T08:51:39.873Z,89.48
2022-11-17T08:52:39.887Z,89.42
2022-11-17T08:53:39.856Z,89.30
2022-11-17T08:54:39.887Z,89.42
2022-11-17T08:55:41.418Z,89.43
2022-11-17T08:56:39.824Z,89.40
2022-11-17T08:57:39.820Z,89.45
2022-11-17T08:58:39.782Z,89.32
2022-11-17T08:59:39.777Z,89.44
2022-11-17T09:00:39.811Z,89.48
2022-11-17T09:01:39.796Z,89.53
2022-11-17T09:02:39.738Z,89.48
2022-11-17T09:03:39.718Z,89.58
2022-11-17T09:04:39.749Z,89.46
2022-11-17T09:05:39.688Z,89.57
2022-11-17T09:06:39.705Z,89.56
2022-11-17T09:07:39.714Z,89.81
2022-11-17T09:08:47.569Z,89.70
2022-11-17T09:09:39.754Z,89.75
2022-11-17T09:10:39.601Z,89.48
2022-11-17T09:11:39.592Z,89.65
2022-11-17T09:12:39.582Z,89.85
2022-11-17T09:13:39.548Z,89.80
2022-11-17T09:14:39.552Z,89.84
2022-11-17T09:15:39.558Z,89.69
2022-11-17T09:16:39.517Z,89.89
2022-11-17T09:17:39.508Z,89.92
2022-11-17T09:18:40.098Z,89.96
2022-11-17T09:19:39.510Z,90.00
2022-11-17T09:20:45.315Z,89.87
2022-11-17T09:21:39.475Z,90.01
2022-11-17T09:22:39.447Z,89.82
2022-11-17T09:23:39.754Z,89.89
2022-11-17T09:24:39.408Z,90.03
2022-11-17T09:25:39.405Z,90.01
2022-11-17T09:26:39.402Z,89.96
2022-11-17T09:27:39.412Z,90.11
2022-11-17T09:28:39.824Z,90.06
2022-11-17T09:29:39.344Z,90.27
2022-11-17T09:30:39.351Z,90.20
2022-11-17T09:31:39.381Z,90.49
2022-11-17T09:32:39.315Z,90.50
2022-11-17T09:33:39.335Z,90.39
2022-11-17T09:34:39.348Z,90.63
2022-11-17T09:35:39.265Z,90.51
2022-11-17T09:36:39.253Z,90.47
2022-11-17T09:37:39.290Z,90.42
2022-11-17T09:38:39.816Z,90.46
2022-11-17T09:39:39.207Z,90.61
2022-11-17T09:40:39.259Z,90.52
2022-11-17T09:41:39.214Z,90.55
2022-11-17T09:42:39.168Z,90.60
2022-11-17T09:43:39.206Z,90.65
2022-11-17T09:44:39.162Z,90.64
2022-11-17T09:45:39.149Z,90.88
2022-11-17T09:46:39.153Z,90.89
2022-11-17T09:47:39.102Z,90.63
2022-11-17T09:48:45.732Z,90.71
2022-11-17T09:49:39.119Z,90.66
2022-11-17T09:50:39.091Z,90.75
2022-11-17T09:51:39.097Z,90.80
2022-11-17T09:52:39.078Z,90.86
2022-11-17T09:53:39.031Z,90.81
2022-11-17T09:54:39.038Z,90.84
2022-11-17T09:55:39.053Z,90.70
2022-11-17T09:56:38.982Z,90.94
2022-11-17T09:57:38.981Z,90.76
2022-11-17T09:58:39.387Z,90.64
2022-11-17T09:59:38.992Z,90.79
2022-11-17T10:00:38.955Z,90.70
2022-11-17T10:01:38.950Z,90.71
2022-11-17T10:02:39.003Z,90.71
2022-11-17T10:03:45.274Z,90.83
2022-11-17T10:04:38.899Z,90.77
2022-11-17T10:05:38.950Z,90.95
2022-11-17T10:06:38.867Z,90.93
2022-11-17T10:07:38.876Z,90.87
2022-11-17T10:08:38.830Z,90.88
2022-11-17T10:09:38.872Z,90.80
2022-11-17T10:10:38.824Z,90.86
2022-11-17T10:11:38.795Z,90.62
2022-11-17T10:12:38.788Z,90.77
2022-11-17T10:13:39.027Z,90.68
2022-11-17T10:14:38.748Z,90.71
2022-11-17T10:15:38.760Z,90.95
2022-11-17T10:16:38.768Z,90.86
2022-11-17T10:17:38.741Z,91.03
2022-11-17T10:18:38.729Z,90.95
2022-11-17T10:19:38.713Z,90.95
2022-11-17T10:20:38.670Z,91.14
2022-11-17T10:21:38.673Z,91.08
2022-11-17T10:22:38.652Z,91.03
2022-11-17T10:23:44.473Z,90.88
2022-11-17T10:24:38.635Z,90.89
2022-11-17T10:25:38.631Z,90.95
2022-11-17T10:26:38.613Z,90.74
2022-11-17T10:27:38.594Z,90.64
2022-11-17T10:28:38.586Z,90.90
2022-11-17T10:29:38.552Z,90.81
2022-11-17T10:30:38.546Z,90.72
2022-11-17T10:31:38.540Z,90.61
2022-11-17T10:32:39.932Z,90.61
2022-11-17T10:33:38.912Z,90.59
2022-11-17T10:34:41.322Z,90.59
2022-11-17T10:35:38.477Z,90.65
2022-11-17T10:36:38.514Z,90.34
2022-11-17T10:37:38.445Z,90.38
2022-11-17T10:38:38.455Z,90.18
2022-11-17T10:39:38.454Z,90.18
2022-11-17T10:40:38.433Z,90.32
2022-11-17T10:41:38.393Z,90.41
2022-11-17T10:42:38.387Z,90.31
2022-11-17T10:43:38.724Z,90.07
2022-11-17T10:44:38.375Z,90.07
2022-11-17T10:45:38.349Z,89.94
2022-11-17T10:46:46.145Z,89.85
2022-11-17T10:47:38.345Z,89.79
2022-11-17T10:48:38.326Z,89.89
2022-11-17T10:49:38.318Z,90.09
2022-11-17T10:50:38.335Z,89.93
2022-11-17T10:51:38.263Z,89.93
2022-11-17T10:52:38.277Z,90.05
2022-11-17T10:53:45.150Z,89.95
2022-11-17T10:54:38.235Z,89.79
2022-11-17T10:55:38.216Z,89.85
2022-11-17T10:56:38.205Z,89.72
2022-11-17T10:57:38.205Z,89.74
2022-11-17T10:58:38.199Z,89.86
2022-11-17T10:59:38.193Z,89.92
2022-11-17T11:00:38.161Z,89.90
2022-11-17T11:01:38.203Z,89.88
2022-11-17T11:02:38.131Z,89.64
2022-11-17T11:03:38.381Z,89.85
2022-11-17T11:04:38.094Z,89.88
2022-11-17T11:05:38.091Z,89.75
2022-11-17T11:06:38.082Z,89.73
2022-11-17T11:07:38.159Z,89.57
2022-11-17T11:08:38.058Z,89.59
2022-11-17T11:09:38.028Z,89.77
2022-11-17T11:10:38.045Z,89.51
2022-11-17T11:11:38.036Z,89.34
2022-11-17T11:12:38.022Z,89.54
2022-11-17T11:13:37.982Z,89.53
2022-11-17T11:14:37.975Z,89.49
2022-11-17T11:15:38.002Z,89.69
2022-11-17T11:16:37.971Z,89.59
2022-11-17T11:17:37.956Z,89.61
2022-11-17T11:18:37.936Z,89.27
2022-11-17T11:19:37.908Z,89.45
2022-11-17T11:20:37.902Z,89.54
2022-11-17T11:21:37.893Z,89.50
2022-11-17T11:22:37.880Z,89.36
2022-11-17T11:23:37.843Z,89.32
2022-11-17T11:24:37.875Z,89.43
2022-11-17T11:25:37.880Z,89.40
2022-11-17T11:26:37.869Z,89.58
2022-11-17T11:27:37.793Z,89.42
2022-11-17T11:28:41.269Z,89.49
2022-11-17T11:29:37.793Z,89.23
2022-11-17T11:30:37.789Z,89.31
2022-11-17T11:31:37.742Z,89.20
2022-11-17T11:32:37.751Z,89.28
2022-11-17T11:33:37.746Z,89.11
2022-11-17T11:34:37.724Z,89.30
2022-11-17T11:35:37.707Z,89.09
2022-11-17T11:36:37.693Z,89.27
2022-11-17T11:37:37.688Z,89.29
2022-11-17T11:38:37.671Z,89.04
2022-11-17T11:39:37.664Z,88.92
2022-11-17T11:40:37.651Z,89.19
2022-11-17T11:41:37.619Z,89.06
2022-11-17T11:42:37.599Z,88.86
2022-11-17T11:43:37.625Z,88.96
2022-11-17T11:44:37.572Z,88.85
2022-11-17T11:45:37.594Z,89.12
2022-11-17T11:46:37.549Z,89.07
2022-11-17T11:47:37.532Z,88.93
2022-11-17T11:48:37.541Z,88.91
2022-11-17T11:49:37.523Z,88.79
2022-11-17T11:50:41.613Z,88.76
2022-11-17T11:51:37.490Z,88.65
2022-11-17T11:52:37.517Z,89.00
2022-11-17T11:53:37.459Z,88.84
2022-11-17T11:54:40.339Z,88.93
2022-11-17T11:55:37.432Z,88.84
2022-11-17T11:56:37.454Z,88.97
2022-11-17T11:57:37.413Z,88.76
2022-11-17T11:58:37.432Z,88.59
2022-11-17T11:59:37.429Z,88.54
2022-11-17T12:00:37.397Z,88.73
2022-11-17T12:01:37.362Z,88.74
2022-11-17T12:02:37.395Z,88.88
2022-11-17T12:03:37.442Z,88.52
2022-11-17T12:04:37.459Z,88.42
2022-11-17T12:05:37.295Z,88.71
2022-11-17T12:06:37.328Z,88.69
2022-11-17T12:07:37.343Z,88.61
2022-11-17T12:08:37.288Z,88.66
2022-11-17T12:09:37.262Z,88.64
2022-11-17T12:10:37.264Z,88.50
2022-11-17T12:11:37.239Z,88.69
2022-11-17T12:12:37.221Z,88.57
2022-11-17T12:13:41.779Z,88.51
2022-11-17T12:14:37.199Z,88.51
2022-11-17T12:15:37.165Z,88.34
2022-11-17T12:16:37.183Z,88.48
2022-11-17T12:17:37.159Z,88.43
2022-11-17T12:18:37.160Z,88.45
2022-11-17T12:19:37.118Z,88.56
2022-11-17T12:20:37.118Z,88.38
2022-11-17T12:21:37.137Z,88.37
2022-11-17T12:22:37.070Z,88.50
2022-11-17T12:23:37.065Z,88.60
2022-11-17T12:24:37.050Z,88.65
2022-11-17T12:25:37.052Z,88.34
2022-11-17T12:26:37.021Z,88.20
2022-11-17T12:27:37.019Z,88.41
2022-11-17T12:28:37.018Z,88.50
2022-11-17T12:29:36.978Z,88.39
2022-11-17T12:30:36.986Z,88.35
2022-11-17T12:31:36.991Z,88.63
2022-11-17T12:32:37.014Z,88.58
2022-11-17T12:33:36.960Z,88.49
2022-11-17T12:34:36.945Z,88.37
2022-11-17T12:35:36.940Z,88.17
2022-11-17T12:36:36.901Z,88.42
2022-11-17T12:37:36.892Z,88.36
2022-11-17T12:38:36.872Z,88.36
2022-11-17T12:39:36.882Z,88.47
2022-11-17T12:40:36.837Z,88.25
2022-11-17T12:41:36.848Z,88.43
2022-11-17T12:42:36.816Z,88.24
2022-11-17T12:43:36.826Z,88.25
2022-11-17T12:44:36.812Z,88.26
2022-11-17T12:45:41.716Z,88.27
2022-11-17T12:46:36.801Z,88.15
2022-11-17T12:47:36.805Z,88.11
2022-11-17T12:48:36.818Z,88.23
2022-11-17T12:49:36.754Z,88.31
2022-11-17T12:50:36.764Z,88.11
2022-11-17T12:51:36.710Z,88.32
2022-11-17T12:52:36.698Z,88.03